Time;durP1;ratioP1;P1;durP2;ratioP2;P2;SDS_P1;SDS_P2;PMS_P1;PMS_P2;Temp;Humidity;BMP_temperature;BMP_pressure;BME280_temperature;BME280_humidity;BME280_pressure;Samples;Min_cycle;Max_cycle;Signal;HPM_P1;HPM_P2
2022/07/02 00:00:21;;;;;;;1.85;0.63;;;;;;;14.56;60.29;100321.31;5054695;28;20075;-47
2022/07/02 00:02:51;;;;;;;1.65;1.02;;;;;;;14.56;60.18;100321.31;5059427;28;20041;-45
2022/07/02 00:05:21;;;;;;;6.53;0.93;;;;;;;14.55;60.14;100319.59;5056035;28;20064;-47
2022/07/02 00:07:49;;;;;;;1.85;0.95;;;;;;;14.51;60.27;100317.91;5050770;28;20049;-49
2022/07/02 00:10:17;;;;;;;4.30;0.90;;;;;;;14.48;60.46;100317.97;5055088;28;20864;-51
2022/07/02 00:12:45;;;;;;;3.15;0.70;;;;;;;14.45;61.09;100313.66;5058707;28;20550;-46
2022/07/02 00:15:11;;;;;;;1.02;0.65;;;;;;;14.42;60.26;100318.06;5052968;28;20041;-46
2022/07/02 00:17:39;;;;;;;1.63;0.85;;;;;;;14.38;60.77;100318.09;5058707;28;20107;-47
2022/07/02 00:20:06;;;;;;;2.20;0.45;;;;;;;14.37;60.75;100305.97;5041885;28;20605;-44
2022/07/02 00:22:33;;;;;;;3.38;0.93;;;;;;;14.34;61.43;100311.22;5058666;28;20044;-45
2022/07/02 00:24:59;;;;;;;2.17;0.88;;;;;;;14.32;61.36;100312.97;5052396;28;20094;-45
2022/07/02 00:27:28;;;;;;;2.20;0.90;;;;;;;14.31;60.95;100311.25;5042802;28;20068;-46
2022/07/02 00:32:36;;;;;;;1.88;0.50;;;;;;;14.23;61.41;100294.88;5045910;27;20401;-48
2022/07/02 00:35:08;;;;;;;2.88;1.02;;;;;;;14.19;61.53;100299.25;5012825;28;20061;-47
2022/07/02 00:37:37;;;;;;;3.65;0.75;;;;;;;14.17;62.22;100302.75;5009187;28;20096;-49
2022/07/02 00:40:06;;;;;;;4.25;0.85;;;;;;;14.13;61.25;100300.22;5006854;28;20156;-51
2022/07/02 00:42:35;;;;;;;3.60;0.60;;;;;;;14.12;61.69;100295.88;5025858;28;20658;-47
2022/07/02 00:45:02;;;;;;;3.22;0.80;;;;;;;14.11;61.83;100291.56;5004365;28;20112;-45
2022/07/02 00:47:30;;;;;;;2.75;0.63;;;;;;;14.09;61.65;100290.69;5007219;28;20053;-46
2022/07/02 00:49:57;;;;;;;5.10;0.98;;;;;;;14.06;62.62;100285.56;5013767;28;20054;-45
2022/07/02 00:52:24;;;;;;;3.00;0.95;;;;;;;14.04;62.68;100287.31;5002200;28;20054;-45
2022/07/02 00:54:50;;;;;;;2.70;0.60;;;;;;;14.03;62.69;100280.38;5007523;28;20065;-46
2022/07/02 00:57:18;;;;;;;2.42;0.60;;;;;;;14.02;62.84;100289.09;5005041;28;20112;-45
2022/07/02 00:59:44;;;;;;;4.50;0.70;;;;;;;13.98;63.27;100287.38;5006065;28;20054;-47
2022/07/02 01:02:11;;;;;;;5.88;1.13;;;;;;;13.93;62.71;100279.63;5006551;28;20990;-46
2022/07/02 01:04:41;;;;;;;3.25;0.70;;;;;;;13.91;63.09;100277.94;4999510;28;20534;-45
2022/07/02 01:07:12;;;;;;;3.00;1.05;;;;;;;13.86;62.92;100276.25;5013228;28;20058;-47
2022/07/02 01:12:28;;;;;;;7.10;0.60;;;;;;;13.80;62.97;100273.72;4988635;28;20051;-48
2022/07/02 01:14:56;;;;;;;4.65;0.60;;;;;;;13.80;63.60;100272.84;4980819;28;20509;-49
2022/07/02 01:17:23;;;;;;;1.45;0.52;;;;;;;13.76;63.41;100274.66;4976687;28;20729;-47
2022/07/02 01:19:50;;;;;;;2.28;0.70;;;;;;;13.75;62.85;100271.16;4980166;28;20573;-47
2022/07/02 01:24:54;;;;;;;6.72;0.88;;;;;;;13.74;62.93;100279.88;5026063;28;20972;-47
2022/07/02 01:27:22;;;;;;;2.38;0.85;;;;;;;13.74;63.45;100273.78;5015587;28;20413;-49
2022/07/02 01:29:50;;;;;;;3.20;0.82;;;;;;;13.72;63.30;100262.56;5017652;28;20045;-47
2022/07/02 01:32:18;;;;;;;2.65;0.95;;;;;;;13.68;64.01;100259.09;5019785;28;20045;-50
2022/07/02 01:34:49;;;;;;;2.20;0.85;;;;;;;13.67;62.94;100252.19;5020425;28;20050;-47
2022/07/02 01:37:18;;;;;;;3.05;0.65;;;;;;;13.64;63.86;100251.38;5022221;28;20100;-48
2022/07/02 01:39:45;;;;;;;3.55;0.90;;;;;;;13.60;64.15;100255.75;5018312;28;20053;-49
2022/07/02 01:42:13;;;;;;;4.03;1.48;;;;;;;13.57;63.78;100251.44;5020187;28;20099;-51
2022/07/02 01:44:41;;;;;;;1.52;0.70;;;;;;;13.54;63.44;100251.47;5022505;28;20053;-45
2022/07/02 01:47:10;;;;;;;3.92;1.25;;;;;;;13.50;64.62;100244.59;5020664;28;20049;-46
2022/07/02 01:49:38;;;;;;;3.85;1.52;;;;;;;13.45;64.90;100242.00;5020342;28;20044;-51
2022/07/02 01:52:06;;;;;;;5.68;0.82;;;;;;;13.43;63.93;100248.09;5021481;28;20041;-44
2022/07/02 01:54:34;;;;;;;2.42;0.68;;;;;;;13.40;63.75;100243.78;5023369;28;20046;-47
2022/07/02 01:57:01;;;;;;;4.07;0.57;;;;;;;13.39;64.93;100246.41;5020257;28;20049;-46
2022/07/02 01:59:28;;;;;;;2.78;0.50;;;;;;;13.34;65.20;100249.09;5021893;28;20055;-49
2022/07/02 02:01:54;;;;;;;3.75;1.20;;;;;;;13.31;65.51;100249.94;5017904;28;20060;-47
2022/07/02 02:04:21;;;;;;;3.22;0.75;;;;;;;13.30;64.73;100235.22;5022633;28;20038;-46
2022/07/02 02:06:48;;;;;;;4.47;0.85;;;;;;;13.28;65.60;100229.19;5018188;28;20057;-45
2022/07/02 02:09:15;;;;;;;4.72;1.13;;;;;;;13.26;64.88;100232.66;5022160;28;20658;-45
2022/07/02 02:11:43;;;;;;;1.77;0.38;;;;;;;13.24;65.45;100237.88;5020690;28;20070;-47
2022/07/02 02:14:10;;;;;;;4.30;0.82;;;;;;;13.22;65.85;100244.88;5021066;28;20042;-46
2022/07/02 02:16:37;;;;;;;7.82;0.82;;;;;;;13.21;64.93;100240.53;5022392;28;20057;-49
2022/07/02 02:19:04;;;;;;;2.08;0.75;;;;;;;13.19;64.53;100237.09;5017953;28;20046;-48
2022/07/02 02:21:31;;;;;;;3.63;1.10;;;;;;;13.16;65.23;100234.50;5015460;28;20046;-45
2022/07/02 02:23:59;;;;;;;3.58;0.93;;;;;;;13.14;65.29;100231.91;5020789;28;20045;-46
2022/07/02 02:26:26;;;;;;;2.15;0.60;;;;;;;13.10;65.78;100235.44;5020913;28;20053;-47
2022/07/02 02:28:53;;;;;;;2.72;0.82;;;;;;;13.07;65.21;100232.88;5020209;28;20054;-47
2022/07/02 02:31:22;;;;;;;4.28;0.52;;;;;;;13.02;65.78;100232.94;5020317;28;20417;-45
2022/07/02 02:33:49;;;;;;;4.07;0.95;;;;;;;13.02;66.82;100232.94;5019225;28;20050;-48
2022/07/02 02:36:16;;;;;;;2.72;0.80;;;;;;;12.99;66.38;100232.94;5002248;28;20087;-47
2022/07/02 02:38:46;;;;;;;2.72;0.57;;;;;;;12.96;65.46;100227.78;5005273;28;20057;-50
2022/07/02 02:41:13;;;;;;;2.10;0.93;;;;;;;12.94;66.58;100229.53;5002718;28;20133;-48
2022/07/02 02:43:40;;;;;;;3.80;0.70;;;;;;;12.94;65.70;100230.38;5006206;28;20042;-47
2022/07/02 02:46:07;;;;;;;3.08;0.98;;;;;;;12.92;65.56;100231.28;5003260;28;20502;-47
2022/07/02 02:48:35;;;;;;;3.00;0.88;;;;;;;12.90;66.62;100238.25;5004975;28;20050;-47
2022/07/02 02:51:03;;;;;;;2.70;0.93;;;;;;;12.88;66.29;100235.66;5005723;28;20104;-47
2022/07/02 02:53:31;;;;;;;4.47;1.30;;;;;;;12.84;66.30;100229.63;5005782;28;20041;-45
2022/07/02 02:55:59;;;;;;;3.53;1.25;;;;;;;12.84;66.28;100229.63;5006636;28;20046;-49
2022/07/02 02:58:26;;;;;;;4.00;1.08;;;;;;;12.83;66.30;100235.69;5004240;28;20050;-44
2022/07/02 03:00:53;;;;;;;7.90;0.73;;;;;;;12.83;66.66;100232.22;5001756;28;20050;-45
2022/07/02 03:03:20;;;;;;;5.35;0.85;;;;;;;12.82;66.98;100239.19;5005589;28;20049;-45
2022/07/02 03:05:47;;;;;;;3.70;1.40;;;;;;;12.78;66.69;100229.69;5005014;28;20045;-44
2022/07/02 03:08:13;;;;;;;4.45;1.05;;;;;;;12.78;67.62;100223.63;5006347;28;20100;-45
2022/07/02 03:10:40;;;;;;;4.03;1.23;;;;;;;12.76;66.25;100226.22;5007267;28;20108;-45
2022/07/02 03:13:07;;;;;;;3.97;1.33;;;;;;;12.75;66.49;100223.63;5002267;28;20046;-44
2022/07/02 03:15:34;;;;;;;3.30;1.45;;;;;;;12.74;66.53;100228.00;5004814;28;20073;-43
2022/07/02 03:18:00;;;;;;;5.10;1.00;;;;;;;12.74;67.72;100225.41;5004924;28;20640;-43
2022/07/02 03:20:27;;;;;;;3.13;1.20;;;;;;;12.74;66.53;100222.81;5003683;28;20100;-45
2022/07/02 03:22:54;;;;;;;6.13;1.42;;;;;;;12.72;67.12;100220.22;5004630;28;20108;-44
2022/07/02 03:25:20;;;;;;;2.35;1.45;;;;;;;12.71;67.09;100217.63;5005398;28;20200;-45
2022/07/02 03:27:47;;;;;;;3.22;1.25;;;;;;;12.71;67.96;100217.63;5004827;28;20104;-43
2022/07/02 03:30:13;;;;;;;4.85;1.30;;;;;;;12.72;67.94;100227.13;5003736;28;20076;-42
2022/07/02 03:32:40;;;;;;;4.55;0.77;;;;;;;12.70;67.13;100221.09;5006545;28;20046;-42
2022/07/02 03:35:07;;;;;;;5.20;0.88;;;;;;;12.69;66.68;100219.34;5004998;28;20339;-46
2022/07/02 03:37:33;;;;;;;4.65;1.13;;;;;;;12.67;68.43;100226.31;5005613;28;20049;-46
2022/07/02 03:40:00;;;;;;;3.30;1.13;;;;;;;12.69;67.15;100229.75;5003199;28;20096;-46
2022/07/02 03:42:27;;;;;;;8.55;2.05;;;;;;;12.67;68.26;100221.97;5001246;28;20107;-43
2022/07/02 03:44:53;;;;;;;5.95;3.28;;;;;;;12.67;67.87;100232.34;5004389;28;20054;-44
2022/07/02 03:47:20;;;;;;;9.00;3.53;;;;;;;12.68;67.36;100231.50;5002017;28;20060;-45
2022/07/02 03:49:46;;;;;;;7.43;3.40;;;;;;;12.67;67.02;100223.72;5007170;28;20084;-47
2022/07/02 03:52:13;;;;;;;4.22;1.58;;;;;;;12.66;67.63;100219.41;5005395;28;20100;-46
2022/07/02 03:54:40;;;;;;;4.90;1.02;;;;;;;12.67;68.13;100226.31;5007257;28;20049;-46
2022/07/02 03:57:07;;;;;;;3.55;0.65;;;;;;;12.65;67.69;100221.13;5003305;28;20133;-45
2022/07/02 03:59:34;;;;;;;3.00;0.68;;;;;;;12.65;68.14;100217.66;5002434;28;20112;-45
2022/07/02 04:02:01;;;;;;;4.95;1.55;;;;;;;12.65;68.18;100228.06;5002038;28;20107;-46
2022/07/02 04:04:29;;;;;;;4.47;1.35;;;;;;;12.63;69.31;100224.63;5007514;28;20107;-47
2022/07/02 04:06:55;;;;;;;2.78;0.68;;;;;;;12.64;68.93;100221.16;5004929;28;20053;-43
2022/07/02 04:09:22;;;;;;;2.83;1.08;;;;;;;12.64;69.25;100221.16;5006360;28;20045;-45
2022/07/02 04:11:49;;;;;;;5.20;0.88;;;;;;;12.66;68.67;100216.81;5003147;28;20054;-43
2022/07/02 04:14:15;;;;;;;4.10;1.13;;;;;;;12.65;68.84;100207.28;5002958;28;20391;-44
2022/07/02 04:16:42;;;;;;;7.80;1.83;;;;;;;12.67;69.35;100214.16;5004506;28;20053;-44
2022/07/02 04:19:09;;;;;;;6.15;1.30;;;;;;;12.69;70.04;100217.63;5004992;28;20045;-44
2022/07/02 04:21:40;;;;;;;6.00;2.30;;;;;;;12.71;69.82;100213.25;5005612;28;20604;-44
2022/07/02 04:24:07;;;;;;;9.13;1.63;;;;;;;12.72;69.42;100219.34;5003084;28;20073;-45
2022/07/02 04:26:34;;;;;;;3.85;1.70;;;;;;;12.70;69.51;100215.91;5005809;28;20127;-44
2022/07/02 04:29:01;;;;;;;3.92;1.63;;;;;;;12.74;70.49;100212.41;5003667;28;20057;-44
2022/07/02 04:31:29;;;;;;;3.33;1.17;;;;;;;12.77;70.35;100217.53;5002029;28;20054;-44
2022/07/02 04:33:56;;;;;;;4.20;2.00;;;;;;;12.77;69.92;100201.94;5000380;28;20065;-46
2022/07/02 04:36:23;;;;;;;6.55;2.17;;;;;;;12.82;70.10;100205.38;5003127;28;20054;-44
2022/07/02 04:38:50;;;;;;;4.57;1.27;;;;;;;12.84;70.43;100203.63;5002678;28;20084;-46
2022/07/02 04:41:17;;;;;;;11.45;1.42;;;;;;;12.88;70.00;100203.59;4998715;28;20107;-46
2022/07/02 04:43:43;;;;;;;5.68;1.85;;;;;;;12.97;70.61;100193.13;5004018;28;20045;-45
2022/07/02 04:46:10;;;;;;;9.20;2.20;;;;;;;13.03;70.65;100193.03;5005939;28;20112;-44
2022/07/02 04:48:37;;;;;;;2.42;1.08;;;;;;;13.07;69.92;100199.94;5002264;28;20111;-44
2022/07/02 04:51:03;;;;;;;3.05;1.42;;;;;;;13.08;70.31;100196.44;5003821;28;20049;-43
2022/07/02 04:53:30;;;;;;;3.92;1.42;;;;;;;13.17;69.55;100194.66;5004030;28;20747;-46
2022/07/02 04:55:57;;;;;;;3.33;1.35;;;;;;;13.24;69.60;100196.28;5006059;28;20046;-44
2022/07/02 04:58:23;;;;;;;6.00;1.20;;;;;;;13.32;69.84;100185.78;5001420;28;20049;-43
2022/07/02 05:00:51;;;;;;;3.45;1.70;;;;;;;13.44;70.57;100197.81;5000966;28;20636;-47
2022/07/02 05:03:17;;;;;;;7.22;2.55;;;;;;;13.57;69.98;100188.97;5004273;28;20053;-45
2022/07/02 05:05:44;;;;;;;5.43;1.63;;;;;;;13.68;70.39;100190.59;5002135;28;20064;-45
2022/07/02 05:08:11;;;;;;;6.72;1.88;;;;;;;13.81;69.61;100197.34;5003806;28;20037;-45
2022/07/02 05:10:37;;;;;;;4.53;1.65;;;;;;;13.89;70.30;100197.25;5005090;28;20046;-45
2022/07/02 05:13:04;;;;;;;4.65;1.58;;;;;;;13.88;69.97;100193.78;4999368;28;20103;-47
2022/07/02 05:15:31;;;;;;;4.03;1.30;;;;;;;13.94;70.05;100186.75;5002136;28;20060;-46
2022/07/02 05:17:58;;;;;;;7.82;1.55;;;;;;;13.96;69.03;100191.06;5001941;28;20045;-51
2022/07/02 05:20:24;;;;;;;2.90;0.77;;;;;;;14.01;69.81;100198.78;5000222;28;20053;-48
2022/07/02 05:22:51;;;;;;;6.45;1.38;;;;;;;14.04;69.49;100197.88;5002800;28;20223;-45
2022/07/02 05:25:18;;;;;;;4.38;1.52;;;;;;;14.11;69.09;100192.56;5002230;28;20104;-46
2022/07/02 05:27:44;;;;;;;3.33;1.52;;;;;;;14.21;69.32;100184.59;5004811;28;20050;-46
2022/07/02 05:30:11;;;;;;;1.65;0.80;;;;;;;14.29;69.78;100190.59;4997974;28;20045;-44
2022/07/02 05:32:38;;;;;;;6.07;1.60;;;;;;;14.39;69.35;100189.53;5003712;28;20057;-48
2022/07/02 05:35:05;;;;;;;4.75;1.13;;;;;;;14.51;68.64;100190.22;4998649;28;20116;-46
2022/07/02 05:37:31;;;;;;;6.20;1.83;;;;;;;14.55;68.82;100189.28;5005472;28;20046;-46
2022/07/02 05:39:58;;;;;;;5.43;0.70;;;;;;;14.68;68.76;100183.84;4999146;28;20095;-50
2022/07/02 05:42:25;;;;;;;2.67;0.88;;;;;;;14.82;68.64;100184.50;5002581;28;20498;-51
2022/07/02 05:44:51;;;;;;;2.25;1.38;;;;;;;15.01;68.61;100182.41;5003644;28;20119;-47
2022/07/02 05:47:18;;;;;;;3.20;0.88;;;;;;;15.19;68.02;100189.94;5003264;28;20046;-47
2022/07/02 05:49:45;;;;;;;6.35;1.65;;;;;;;15.27;68.34;100182.78;5000669;28;20080;-46
2022/07/02 05:52:11;;;;;;;2.80;1.15;;;;;;;15.39;67.80;100185.16;5006118;28;20050;-44
2022/07/02 05:54:38;;;;;;;2.67;1.25;;;;;;;15.54;67.59;100190.94;5003642;28;21556;-46
2022/07/02 05:57:05;;;;;;;3.90;0.90;;;;;;;15.61;67.57;100189.06;5002530;28;20133;-47
2022/07/02 05:59:31;;;;;;;2.17;0.95;;;;;;;15.61;66.93;100184.72;5001746;28;20046;-46
2022/07/02 06:01:58;;;;;;;2.25;0.47;;;;;;;15.60;66.47;100188.19;5004658;28;20100;-45
2022/07/02 06:04:25;;;;;;;2.65;1.13;;;;;;;15.61;66.38;100200.38;5001547;28;20591;-45
2022/07/02 06:09:38;;;;;;;4.32;1.40;;;;;;;15.69;66.96;100205.41;5002675;28;20042;-49
2022/07/02 06:12:05;;;;;;;3.22;1.15;;;;;;;15.78;66.91;100194.75;5005770;28;20883;-46
2022/07/02 06:14:31;;;;;;;2.15;1.58;;;;;;;15.89;66.46;100199.75;5002679;28;20446;-45
2022/07/02 06:16:58;;;;;;;2.97;0.98;;;;;;;15.98;66.28;100200.47;4999420;28;20050;-49
2022/07/02 06:19:25;;;;;;;1.42;1.23;;;;;;;16.07;66.00;100195.03;5004506;28;20572;-49
2022/07/02 06:21:53;;;;;;;5.68;1.27;;;;;;;16.14;66.15;100201.00;5003369;28;20119;-48
2022/07/02 06:24:19;;;;;;;3.13;1.88;;;;;;;16.18;65.55;100203.47;5005802;28;20045;-48
2022/07/02 06:26:46;;;;;;;3.45;1.27;;;;;;;16.22;65.78;100208.63;5000235;28;20057;-45
2022/07/02 06:29:12;;;;;;;3.13;1.40;;;;;;;16.23;65.61;100213.81;5005784;28;20107;-47
2022/07/02 06:31:39;;;;;;;4.07;1.70;;;;;;;16.28;65.73;100216.34;5006173;28;20046;-47
2022/07/02 06:34:06;;;;;;;2.30;1.20;;;;;;;16.31;65.53;100213.63;5004192;28;20054;-46
2022/07/02 06:36:33;;;;;;;6.60;1.10;;;;;;;16.33;65.29;100217.06;5005820;28;20218;-45
2022/07/02 06:38:59;;;;;;;2.40;1.13;;;;;;;16.38;65.10;100214.38;5007462;28;20058;-48
2022/07/02 06:44:12;;;;;;;3.10;1.92;;;;;;;16.42;65.49;100216.84;4985001;28;20431;-47
2022/07/02 06:46:39;;;;;;;3.45;1.05;;;;;;;16.45;65.09;100216.78;4981474;28;20190;-47
2022/07/02 06:49:06;;;;;;;5.25;1.67;;;;;;;16.54;65.86;100235.75;4982408;28;20113;-46
2022/07/02 06:51:32;;;;;;;5.05;1.02;;;;;;;16.62;65.62;100228.56;4987280;28;20529;-47
2022/07/02 06:54:00;;;;;;;4.53;1.63;;;;;;;16.77;65.41;100226.47;4987404;28;20085;-48
2022/07/02 06:56:29;;;;;;;3.17;1.77;;;;;;;16.81;64.45;100238.56;4984994;28;20078;-46
2022/07/02 06:58:56;;;;;;;2.33;0.95;;;;;;;16.81;64.62;100238.56;4984086;28;20061;-46
2022/07/02 07:01:23;;;;;;;4.75;1.25;;;;;;;16.86;64.45;100244.56;4983648;28;20105;-50
2022/07/02 07:03:50;;;;;;;6.45;2.42;;;;;;;16.93;64.59;100247.88;4985559;28;20417;-46
2022/07/02 07:06:18;;;;;;;4.38;1.55;;;;;;;17.17;65.32;100235.91;4985607;28;20061;-50
2022/07/02 07:08:44;;;;;;;4.45;1.63;;;;;;;17.44;64.83;100238.66;4996208;28;20057;-46
2022/07/02 07:11:11;;;;;;;3.47;1.63;;;;;;;17.63;64.67;100243.34;5004608;28;20057;-48
2022/07/02 07:13:38;;;;;;;3.22;1.30;;;;;;;17.69;63.74;100230.09;5004870;28;20540;-46
2022/07/02 07:16:11;;;;;;;2.95;0.80;;;;;;;17.71;63.42;100236.16;5004419;28;20058;-47
2022/07/02 07:18:38;;;;;;;5.50;1.13;;;;;;;17.77;63.32;100239.50;5004925;28;20088;-48
2022/07/02 07:21:04;;;;;;;4.03;1.83;;;;;;;17.80;64.00;100231.53;5004354;28;20050;-49
2022/07/02 07:23:31;;;;;;;5.38;1.42;;;;;;;17.82;62.73;100227.09;5003277;28;20698;-46
2022/07/02 07:25:58;;;;;;;2.72;0.93;;;;;;;17.77;62.60;100224.63;5003147;28;20061;-50
2022/07/02 07:28:27;;;;;;;1.20;0.82;;;;;;;17.73;62.23;100218.63;5002723;28;20054;-46
2022/07/02 07:30:54;;;;;;;3.78;1.17;;;;;;;17.73;62.58;100222.97;5003715;28;20052;-45
2022/07/02 07:33:21;;;;;;;2.33;0.88;;;;;;;17.82;62.70;100211.38;5002981;28;20058;-49
2022/07/02 07:35:48;;;;;;;6.05;0.80;;;;;;;18.06;63.26;100214.16;5005050;28;20049;-46
2022/07/02 07:38:15;;;;;;;2.83;0.90;;;;;;;18.40;63.32;100215.72;5002648;28;20054;-46
2022/07/02 07:40:42;;;;;;;2.03;1.25;;;;;;;18.72;62.21;100205.06;5004335;28;20053;-46
2022/07/02 07:43:08;;;;;;;4.10;0.70;;;;;;;18.81;60.98;100219.63;5006399;28;20050;-50
2022/07/02 07:45:35;;;;;;;4.00;1.20;;;;;;;18.84;60.97;100222.13;5002463;28;20038;-47
2022/07/02 07:48:02;;;;;;;2.60;1.08;;;;;;;18.78;60.50;100227.63;5005246;28;20132;-48
2022/07/02 07:50:29;;;;;;;2.97;0.98;;;;;;;18.66;60.88;100229.75;5006267;28;20479;-48
2022/07/02 07:52:56;;;;;;;3.38;1.05;;;;;;;18.66;61.48;100242.84;5002701;28;20045;-49
2022/07/02 07:55:22;;;;;;;3.72;1.42;;;;;;;18.69;60.99;100237.50;4998295;28;20582;-48
2022/07/02 07:57:49;;;;;;;3.28;1.30;;;;;;;18.63;60.97;100241.19;5000594;28;20046;-49
2022/07/02 08:00:16;;;;;;;1.80;1.00;;;;;;;18.62;60.80;100246.50;5000210;28;20061;-49
2022/07/02 08:02:43;;;;;;;5.43;1.00;;;;;;;18.59;60.28;100244.84;5004871;28;20549;-49
2022/07/02 08:05:09;;;;;;;2.33;1.05;;;;;;;18.49;60.68;100244.28;5002224;28;20077;-48
2022/07/02 08:07:37;;;;;;;2.63;1.08;;;;;;;18.47;61.17;100239.97;5005890;28;20053;-50
2022/07/02 08:10:06;;;;;;;3.70;1.88;;;;;;;18.45;61.08;100242.66;5004001;28;20057;-46
2022/07/02 08:12:33;;;;;;;3.75;1.55;;;;;;;18.40;60.95;100247.19;5002480;28;20046;-49
2022/07/02 08:15:00;;;;;;;5.22;0.93;;;;;;;18.34;60.65;100239.53;5007411;28;20050;-46
2022/07/02 08:17:29;;;;;;;4.70;1.10;;;;;;;18.32;60.98;100246.56;5003486;28;20116;-46
2022/07/02 08:19:56;;;;;;;4.00;1.08;;;;;;;18.28;61.24;100244.97;5001315;28;20058;-46
2022/07/02 08:22:23;;;;;;;2.60;0.95;;;;;;;18.24;60.95;100255.53;5001762;28;20445;-47
2022/07/02 08:24:50;;;;;;;4.47;1.13;;;;;;;18.18;61.49;100247.88;5003361;28;21521;-46
2022/07/02 08:27:16;;;;;;;3.20;1.00;;;;;;;18.09;61.72;100254.28;5002973;28;20772;-46
2022/07/02 08:29:43;;;;;;;3.70;1.27;;;;;;;18.03;61.97;100250.94;5005516;28;20111;-48
2022/07/02 08:32:10;;;;;;;4.03;1.60;;;;;;;18.01;61.55;100255.38;5005227;28;20478;-46
2022/07/02 08:34:36;;;;;;;4.20;1.30;;;;;;;17.99;62.40;100261.53;5003868;28;20132;-48
2022/07/02 08:37:04;;;;;;;6.10;1.17;;;;;;;17.98;62.10;100264.19;5004284;28;20102;-48
2022/07/02 08:39:30;;;;;;;2.53;1.33;;;;;;;17.96;62.55;100261.59;5004375;28;20100;-46
2022/07/02 08:41:58;;;;;;;2.42;0.80;;;;;;;17.96;62.54;100264.22;5005610;28;20070;-52
2022/07/02 08:44:25;;;;;;;3.80;1.30;;;;;;;17.97;63.29;100260.69;5003752;28;20061;-46
2022/07/02 08:46:52;;;;;;;2.75;1.45;;;;;;;18.01;62.94;100273.72;5003277;28;20049;-45
2022/07/02 08:49:20;;;;;;;3.05;1.15;;;;;;;18.04;63.42;100269.22;5006236;28;20041;-45
2022/07/02 08:52:04;;;;;;;3.20;1.13;;;;;;;18.07;63.70;100268.28;5001029;28;20104;-43
2022/07/02 08:54:31;;;;;;;3.70;1.35;;;;;;;18.06;64.01;100277.03;5002367;28;20037;-45
2022/07/02 08:57:02;;;;;;;2.83;1.60;;;;;;;18.09;64.08;100271.75;5004465;28;20054;-43
2022/07/02 08:59:31;;;;;;;5.25;1.02;;;;;;;18.16;64.60;100273.28;5000905;28;20453;-43
2022/07/02 09:02:00;;;;;;;6.20;2.65;;;;;;;18.20;65.14;100271.41;5005130;28;20504;-45
2022/07/02 09:04:28;;;;;;;8.20;1.73;;;;;;;18.23;64.79;100261.69;5004351;28;20053;-45
2022/07/02 09:06:57;;;;;;;9.15;1.65;;;;;;;18.24;65.21;100260.78;5005729;28;20049;-44
2022/07/02 09:09:28;;;;;;;4.80;1.48;;;;;;;18.28;65.38;100260.69;5003199;28;20060;-44
2022/07/02 09:11:56;;;;;;;1.90;1.10;;;;;;;18.34;65.70;100263.97;5007695;28;20509;-46
2022/07/02 09:14:23;;;;;;;3.83;1.75;;;;;;;18.40;65.63;100257.66;5002747;28;20429;-45
2022/07/02 09:16:50;;;;;;;4.05;1.98;;;;;;;18.44;65.20;100256.66;5005486;28;20128;-47
2022/07/02 09:19:18;;;;;;;4.35;1.13;;;;;;;18.40;65.77;100270.78;5003836;28;20096;-43
2022/07/02 09:21:49;;;;;;;3.45;1.15;;;;;;;18.37;65.12;100266.50;5003412;28;20414;-45
2022/07/02 09:24:35;;;;;;;2.55;0.75;;;;;;;18.28;65.32;100263.31;5002602;28;20058;-42
2022/07/02 09:27:06;;;;;;;2.97;0.85;;;;;;;18.27;65.47;100265.06;5000564;28;20046;-45
2022/07/02 09:32:19;;;;;;;2.40;1.42;;;;;;;18.21;65.06;100260.88;5057297;27;20415;-45
2022/07/02 09:34:48;;;;;;;1.75;1.48;;;;;;;18.20;65.96;100255.69;4995788;28;20057;-42
2022/07/02 09:37:16;;;;;;;2.75;1.77;;;;;;;18.20;65.23;100242.56;4992633;28;21019;-44
2022/07/02 09:39:44;;;;;;;15.85;2.42;;;;;;;18.27;65.84;100256.38;4998682;28;20054;-44
2022/07/02 09:42:11;;;;;;;2.20;1.60;;;;;;;18.28;65.62;100256.31;5007181;28;20058;-44
2022/07/02 09:44:47;;;;;;;6.63;1.88;;;;;;;18.24;66.25;100263.41;4999585;28;20078;-45
2022/07/02 09:47:14;;;;;;;2.45;2.03;;;;;;;18.26;66.07;100262.50;4994620;28;20058;-46
2022/07/02 09:49:47;;;;;;;4.00;1.85;;;;;;;18.29;66.06;100265.03;5001289;28;20133;-45
2022/07/02 09:52:17;;;;;;;14.75;2.80;;;;;;;18.34;65.96;100260.50;5002177;28;20050;-47
2022/07/02 09:54:45;;;;;;;2.63;2.17;;;;;;;18.37;66.24;100255.16;4995923;28;20662;-43
2022/07/02 09:57:12;;;;;;;1.70;1.60;;;;;;;18.37;66.10;100255.16;4995289;28;20096;-46
2022/07/02 09:59:40;;;;;;;1.85;1.75;;;;;;;18.38;65.86;100256.88;4998655;28;20050;-44
2022/07/02 10:02:21;;;;;;;5.60;1.20;;;;;;;18.32;66.17;100262.31;4992483;28;20053;-46
2022/07/02 10:04:53;;;;;;;9.27;1.38;;;;;;;18.32;66.82;100254.44;5000891;28;20097;-44
2022/07/02 10:07:21;;;;;;;2.72;1.42;;;;;;;18.30;66.13;100256.28;4997549;28;20049;-47
2022/07/02 10:09:49;;;;;;;1.85;1.60;;;;;;;18.28;66.02;100269.44;4997476;28;20068;-47
2022/07/02 10:12:17;;;;;;;3.78;1.77;;;;;;;18.26;66.32;100267.72;4999212;28;20950;-43
2022/07/02 10:14:46;;;;;;;3.35;2.00;;;;;;;18.22;66.43;100265.22;5002705;28;20383;-45
2022/07/02 10:17:15;;;;;;;15.80;2.03;;;;;;;18.22;66.80;100267.84;5001563;28;20101;-48
2022/07/02 10:19:42;;;;;;;30.63;2.40;;;;;;;18.26;67.03;100267.72;4999703;28;20057;-45
2022/07/02 10:22:09;;;;;;;1.98;1.33;;;;;;;18.31;66.99;100260.59;4994344;28;20050;-42
2022/07/02 10:24:36;;;;;;;3.92;1.27;;;;;;;18.41;66.84;100256.75;4993571;28;20096;-43
2022/07/02 10:27:04;;;;;;;3.33;1.88;;;;;;;18.59;67.44;100270.19;5016394;28;20046;-43
2022/07/02 10:29:32;;;;;;;2.05;1.80;;;;;;;18.87;67.27;100264.03;4999556;28;20486;-46
2022/07/02 10:34:51;;;;;;;2.17;0.52;;;;;;;19.26;66.96;100260.09;5042383;28;20483;-44
2022/07/02 10:37:18;;;;;;;1.98;0.60;;;;;;;19.27;65.67;100265.31;5040593;28;20103;-47
2022/07/02 10:39:45;;;;;;;0.80;0.60;;;;;;;19.21;65.54;100278.63;5036063;28;20050;-45
2022/07/02 10:42:11;;;;;;;2.15;0.70;;;;;;;19.15;66.08;100278.84;5040101;28;20057;-44
2022/07/02 10:44:39;;;;;;;3.35;0.50;;;;;;;19.19;65.93;100280.47;5039576;28;20041;-43
2022/07/02 10:47:27;;;;;;;1.35;0.77;;;;;;;19.17;65.81;100281.41;5037487;28;20469;-41
2022/07/02 10:55:06;;;;;;;1.27;0.50;;;;;;;19.23;65.92;100287.34;5061853;27;21148;-42
2022/07/02 10:57:33;;;;;;;2.35;0.60;;;;;;;19.20;65.16;100276.06;5058417;28;20048;-44
2022/07/02 11:00:00;;;;;;;1.40;0.40;;;;;;;19.13;65.69;100276.28;5052166;28;20064;-43
2022/07/02 11:02:33;;;;;;;2.72;0.60;;;;;;;19.08;65.44;100278.19;5055978;28;20440;-45
2022/07/02 11:05:10;;;;;;;4.82;0.70;;;;;;;19.03;65.79;100277.50;5063924;28;20065;-44
2022/07/02 11:07:44;;;;;;;0.85;0.40;;;;;;;18.97;65.40;100275.94;5061417;28;20049;-44
2022/07/02 11:10:11;;;;;;;1.10;0.52;;;;;;;18.96;65.50;100282.09;5037092;28;20447;-45
2022/07/02 11:25:45;;;;;;;0.52;0.45;;;;;;;19.70;65.76;100264.66;5114379;27;20399;-43
2022/07/02 11:28:12;;;;;;;0.77;0.38;;;;;;;19.67;65.65;100264.75;5081015;28;20063;-45
2022/07/02 11:30:39;;;;;;;0.73;0.45;;;;;;;19.60;65.43;100263.25;5081646;28;20048;-43
2022/07/02 11:33:14;;;;;;;1.10;0.32;;;;;;;19.56;65.71;100266.91;5082202;28;20420;-44
2022/07/02 11:35:43;;;;;;;0.52;0.22;;;;;;;19.55;65.38;100265.22;5078474;28;20050;-42
2022/07/02 11:38:09;;;;;;;0.35;0.28;;;;;;;19.46;65.88;100267.28;5077656;28;20041;-42
2022/07/02 11:40:36;;;;;;;1.23;0.75;;;;;;;19.35;65.45;100261.56;5078489;28;20048;-43
2022/07/02 11:43:13;;;;;;;0.63;0.28;;;;;;;19.21;64.73;100257.63;5073566;28;20398;-47
2022/07/02 11:45:43;;;;;;;0.90;0.70;;;;;;;19.18;65.37;100268.25;5074930;28;20048;-42
2022/07/02 11:48:19;;;;;;;0.95;0.80;;;;;;;19.08;65.28;100266.88;5077519;28;20044;-42
2022/07/02 11:51:01;;;;;;;;;;;;;;;18.89;65.71;100272.72;5073332;28;20075;-42
2022/07/02 11:53:33;;;;;;;0.85;0.22;;;;;;;18.93;65.65;100262.94;5081912;28;20023;-45
2022/07/02 11:56:10;;;;;;;1.88;1.63;;;;;;;18.94;65.72;100265.53;5098041;28;20133;-42
2022/07/02 11:58:41;;;;;;;1.80;0.52;;;;;;;18.97;65.84;100270.69;5099707;28;20051;-41
2022/07/02 12:04:03;;;;;;;2.20;1.75;;;;;;;18.98;65.81;100261.88;5021490;27;20882;-43
2022/07/02 12:06:33;;;;;;;1.67;1.58;;;;;;;19.00;65.93;100257.47;5016236;28;20050;-43